Time;durP1;ratioP1;P1;durP2;ratioP2;P2;SDS_P1;SDS_P2;PMS_P1;PMS_P2;Temp;Humidity;BMP_temperature;BMP_pressure;BME280_temperature;BME280_humidity;BME280_pressure;Samples;Min_cycle;Max_cycle;Signal;HPM_P1;HPM_P2
2021/05/09 00:00:14;;;;;;;3.63;2.90;;;7.30;93.50;;;;;;5037427;28;20017;-89
2021/05/09 00:02:40;;;;;;;3.58;2.90;;;7.30;93.60;;;;;;5036187;28;20033;-90
2021/05/09 00:05:08;;;;;;;3.80;3.05;;;7.30;93.50;;;;;;5037271;28;20096;-91
2021/05/09 00:07:33;;;;;;;4.78;3.45;;;7.30;93.50;;;;;;5037034;28;20052;-90
2021/05/09 00:09:59;;;;;;;4.50;3.22;;;7.30;93.50;;;;;;5037383;28;20025;-90
2021/05/09 00:12:25;;;;;;;3.85;3.42;;;7.30;93.50;;;;;;5037256;28;20025;-90
2021/05/09 00:14:51;;;;;;;6.20;3.45;;;7.30;93.50;;;;;;5036064;28;20036;-94
2021/05/09 00:17:17;;;;;;;4.80;3.28;;;7.20;93.50;;;;;;5035985;28;20036;-91
2021/05/09 00:19:43;;;;;;;3.60;3.25;;;7.20;93.50;;;;;;5037011;28;20032;-92
2021/05/09 00:22:08;;;;;;;4.15;3.47;;;7.20;93.50;;;;;;5035880;28;20486;-93
2021/05/09 00:24:34;;;;;;;4.22;3.58;;;7.20;93.60;;;;;;5036824;28;20026;-93
2021/05/09 00:27:00;;;;;;;4.80;3.78;;;7.10;93.50;;;;;;5035475;28;20061;-89
2021/05/09 00:29:25;;;;;;;4.43;3.47;;;7.10;93.50;;;;;;5037019;28;20036;-93
2021/05/09 00:31:51;;;;;;;6.78;3.30;;;7.10;94.00;;;;;;5035791;28;20026;-93
2021/05/09 00:34:17;;;;;;;6.05;4.00;;;7.00;93.90;;;;;;5037162;28;20459;-93
2021/05/09 00:36:42;;;;;;;4.93;3.70;;;7.10;93.90;;;;;;5036819;28;20388;-93
2021/05/09 00:39:08;;;;;;;4.00;3.50;;;7.00;93.90;;;;;;5035706;28;20120;-93
2021/05/09 00:41:33;;;;;;;4.80;3.78;;;7.10;93.90;;;;;;5035578;28;20025;-88
2021/05/09 00:43:59;;;;;;;8.35;4.30;;;7.10;93.70;;;;;;5035849;28;20021;-94
2021/05/09 00:46:25;;;;;;;5.78;3.85;;;7.00;93.70;;;;;;5035464;28;20025;-94
2021/05/09 00:48:51;;;;;;;4.38;3.75;;;7.00;94.10;;;;;;5035814;28;20024;-95
2021/05/09 00:51:17;;;;;;;5.35;3.53;;;7.00;93.80;;;;;;5035678;28;20026;-92
2021/05/09 00:53:43;;;;;;;4.03;3.58;;;7.00;93.80;;;;;;5035510;28;20467;-91
2021/05/09 00:56:15;;;;;;;6.57;4.10;;;7.00;93.70;;;;;;5035241;28;20025;-92
2021/05/09 00:58:47;;;;;;;6.53;4.50;;;7.00;93.70;;;;;;5035597;28;20032;-92
2021/05/09 01:01:13;;;;;;;7.97;5.03;;;7.00;93.80;;;;;;5035344;28;20167;-94
2021/05/09 01:03:42;;;;;;;7.53;4.07;;;7.00;93.80;;;;;;5035367;28;20391;-94
2021/05/09 01:06:09;;;;;;;6.13;4.22;;;6.90;93.90;;;;;;5035073;28;20120;-92
2021/05/09 01:08:36;;;;;;;5.45;4.20;;;7.00;93.90;;;;;;5035160;28;20108;-93
2021/05/09 01:11:06;;;;;;;7.95;4.40;;;7.00;93.70;;;;;;5035022;28;20494;-94
2021/05/09 01:13:32;;;;;;;6.32;3.90;;;7.00;93.80;;;;;;5035782;28;20022;-93
2021/05/09 01:16:02;;;;;;;6.07;4.15;;;7.00;93.80;;;;;;5034947;28;20124;-94
2021/05/09 01:18:29;;;;;;;8.25;5.43;;;7.00;93.70;;;;;;5034960;28;20036;-94
2021/05/09 01:20:55;;;;;;;9.70;6.13;;;7.00;93.80;;;;;;5034875;28;20025;-91
2021/05/09 01:23:21;;;;;;;9.90;5.68;;;7.00;93.80;;;;;;5035001;28;20112;-92
2021/05/09 01:25:47;;;;;;;6.90;4.57;;;7.00;93.70;;;;;;5034815;28;20036;-93
2021/05/09 01:28:13;;;;;;;5.70;4.10;;;7.00;93.80;;;;;;5034508;28;20025;-93
2021/05/09 01:30:40;;;;;;;5.55;3.63;;;7.00;93.70;;;;;;5034673;28;20539;-93
2021/05/09 01:33:05;;;;;;;3.95;3.60;;;7.00;93.70;;;;;;5034461;28;20113;-94
2021/05/09 01:35:31;;;;;;;3.80;3.40;;;7.00;93.60;;;;;;5034423;28;20133;-95
2021/05/09 01:37:57;;;;;;;4.70;3.22;;;7.00;93.70;;;;;;5034516;28;20037;-93
2021/05/09 01:40:23;;;;;;;4.85;3.20;;;7.00;93.70;;;;;;5034390;28;20021;-93
2021/05/09 01:42:49;;;;;;;5.00;3.65;;;7.00;93.60;;;;;;5034764;28;20074;-96
2021/05/09 01:45:15;;;;;;;5.82;4.15;;;7.00;93.50;;;;;;5034481;28;20025;-94
2021/05/09 01:47:41;;;;;;;5.00;4.00;;;7.00;93.40;;;;;;5034570;28;20482;-92
2021/05/09 01:50:13;;;;;;;4.45;3.70;;;6.90;93.30;;;;;;5034256;28;20032;-86
2021/05/09 01:52:39;;;;;;;4.05;3.35;;;6.90;93.40;;;;;;5035718;28;20032;-91
2021/05/09 01:55:18;;;;;;;4.03;3.63;;;6.80;93.40;;;;;;5034197;28;20112;-93
2021/05/09 01:57:44;;;;;;;3.83;3.42;;;6.80;93.60;;;;;;5034917;28;20025;-95
2021/05/09 02:00:12;;;;;;;4.45;3.97;;;6.70;93.60;;;;;;5034173;28;20025;-94
2021/05/09 02:02:38;;;;;;;5.57;4.07;;;6.70;93.70;;;;;;5034140;28;20384;-94
2021/05/09 02:05:07;;;;;;;6.10;3.97;;;6.70;93.80;;;;;;5033896;28;20017;-93
2021/05/09 02:07:33;;;;;;;6.50;4.30;;;6.80;93.70;;;;;;5034427;28;20036;-93
2021/05/09 02:09:59;;;;;;;4.40;4.00;;;6.70;93.80;;;;;;5035433;28;20026;-92
2021/05/09 02:12:25;;;;;;;5.43;3.80;;;6.70;93.90;;;;;;5035007;28;20029;-92
2021/05/09 02:14:52;;;;;;;4.95;3.40;;;6.80;93.80;;;;;;5034917;28;20084;-92
2021/05/09 02:17:18;;;;;;;3.85;3.45;;;6.80;93.80;;;;;;5033881;28;20057;-90
2021/05/09 02:19:45;;;;;;;4.90;3.88;;;6.80;93.80;;;;;;5034728;28;20021;-95
2021/05/09 02:22:11;;;;;;;5.53;4.47;;;6.70;93.70;;;;;;5035138;28;20021;-92
2021/05/09 02:24:36;;;;;;;5.65;4.00;;;6.70;93.70;;;;;;5035022;28;20374;-93
2021/05/09 02:27:02;;;;;;;7.80;4.47;;;6.70;93.60;;;;;;5033641;28;20072;-93
2021/05/09 02:29:28;;;;;;;6.38;4.18;;;6.70;93.70;;;;;;5033669;28;20036;-93
2021/05/09 02:31:54;;;;;;;5.10;3.85;;;6.70;93.70;;;;;;5046167;28;20029;-94
2021/05/09 02:34:20;;;;;;;4.80;3.63;;;6.70;93.60;;;;;;5054844;28;20100;-95
2021/05/09 02:36:46;;;;;;;4.10;3.40;;;6.60;93.60;;;;;;5053369;28;20505;-91
2021/05/09 02:39:12;;;;;;;5.18;3.33;;;6.60;93.70;;;;;;5052824;28;20104;-89
2021/05/09 02:41:38;;;;;;;5.32;3.80;;;6.60;93.70;;;;;;5053919;28;20017;-94
2021/05/09 02:44:04;;;;;;;4.55;3.53;;;6.60;93.70;;;;;;5053265;28;20382;-93
2021/05/09 02:46:30;;;;;;;5.00;3.70;;;6.60;93.80;;;;;;5054613;28;20490;-93
2021/05/09 02:48:56;;;;;;;4.93;3.80;;;6.60;93.90;;;;;;5053135;28;20067;-93
2021/05/09 02:51:21;;;;;;;4.35;3.80;;;6.60;93.80;;;;;;5053369;28;20017;-94
2021/05/09 02:53:47;;;;;;;5.25;3.50;;;6.70;93.70;;;;;;5053105;28;20025;-93
2021/05/09 02:56:13;;;;;;;4.40;3.47;;;6.60;93.80;;;;;;5054476;28;20021;-93
2021/05/09 02:58:38;;;;;;;5.15;3.70;;;6.60;93.90;;;;;;5054237;28;20029;-93
2021/05/09 03:01:04;;;;;;;4.28;3.78;;;6.70;93.90;;;;;;5053240;28;20060;-95
2021/05/09 03:03:30;;;;;;;4.72;3.42;;;6.70;93.80;;;;;;5054741;28;20071;-94
2021/05/09 03:05:55;;;;;;;3.80;3.40;;;6.70;93.80;;;;;;5053526;28;20021;-85
2021/05/09 03:08:21;;;;;;;5.30;3.63;;;6.80;93.70;;;;;;5053911;28;20135;-90
2021/05/09 03:10:47;;;;;;;4.88;3.80;;;6.80;93.60;;;;;;5053053;28;20491;-93
2021/05/09 03:13:12;;;;;;;6.38;3.90;;;6.80;93.60;;;;;;5053169;28;20370;-92
2021/05/09 03:15:38;;;;;;;6.00;4.00;;;6.80;93.60;;;;;;5053105;28;20136;-94
2021/05/09 03:18:04;;;;;;;4.88;3.78;;;6.90;93.60;;;;;;5052909;28;20033;-93
2021/05/09 03:20:30;;;;;;;5.40;3.17;;;6.80;93.70;;;;;;5053037;28;20044;-94
2021/05/09 03:22:56;;;;;;;3.50;3.20;;;6.90;93.80;;;;;;5053080;28;20025;-94
2021/05/09 03:25:21;;;;;;;5.28;3.58;;;6.90;93.70;;;;;;5054164;28;20021;-94
2021/05/09 03:27:47;;;;;;;4.93;3.95;;;7.00;93.60;;;;;;5054137;28;20021;-94
2021/05/09 03:30:14;;;;;;;4.18;3.35;;;7.00;93.50;;;;;;5053426;28;20021;-92
2021/05/09 03:32:39;;;;;;;5.30;3.40;;;7.10;93.50;;;;;;5053347;28;20024;-96
2021/05/09 03:35:10;;;;;;;4.88;3.38;;;7.10;93.40;;;;;;5052788;28;20029;-93
2021/05/09 03:37:36;;;;;;;3.75;3.33;;;7.20;93.10;;;;;;5053735;28;20128;-93
2021/05/09 03:40:02;;;;;;;3.67;3.30;;;7.30;93.00;;;;;;5054587;28;20056;-91
2021/05/09 03:42:27;;;;;;;3.95;3.15;;;7.30;93.00;;;;;;5052740;28;20032;-92
2021/05/09 03:44:53;;;;;;;4.20;3.03;;;7.30;93.10;;;;;;5052833;28;20017;-84
2021/05/09 03:47:25;;;;;;;4.63;3.17;;;7.40;93.00;;;;;;5052772;28;20036;-96
2021/05/09 03:49:55;;;;;;;4.47;3.10;;;7.40;92.70;;;;;;5052819;28;20025;-89
2021/05/09 03:52:21;;;;;;;3.25;2.95;;;7.50;92.40;;;;;;5057045;28;20048;-88
2021/05/09 03:54:47;;;;;;;3.72;3.30;;;7.50;92.30;;;;;;5057479;28;20067;-88
2021/05/09 03:57:12;;;;;;;4.10;3.10;;;7.50;92.40;;;;;;5056126;28;20021;-87
2021/05/09 03:59:39;;;;;;;3.10;2.80;;;7.60;92.50;;;;;;5056020;28;20017;-88
2021/05/09 04:02:04;;;;;;;3.67;3.30;;;7.60;92.60;;;;;;5056045;28;20028;-92
2021/05/09 04:04:30;;;;;;;3.83;3.25;;;7.60;92.50;;;;;;5057545;28;20025;-88
2021/05/09 04:06:56;;;;;;;4.95;3.60;;;7.70;92.20;;;;;;5055934;28;20025;-89
2021/05/09 04:09:22;;;;;;;5.40;3.50;;;7.80;91.80;;;;;;5055661;28;20028;-88
2021/05/09 04:11:48;;;;;;;3.90;3.10;;;7.90;91.60;;;;;;5056905;28;20028;-92
2021/05/09 04:14:13;;;;;;;4.85;3.50;;;7.80;91.90;;;;;;5055777;28;20433;-87
2021/05/09 04:16:39;;;;;;;3.30;3.00;;;7.90;91.90;;;;;;5055273;28;20025;-82
2021/05/09 04:19:04;;;;;;;4.03;3.22;;;7.90;91.70;;;;;;5056645;28;20054;-94
2021/05/09 04:21:30;;;;;;;4.05;3.45;;;8.00;91.40;;;;;;5056042;28;20116;-85
2021/05/09 04:23:56;;;;;;;3.60;3.10;;;8.00;91.60;;;;;;5055503;28;20067;-87
2021/05/09 04:26:23;;;;;;;4.63;2.92;;;8.10;91.50;;;;;;5055217;28;20029;-86
2021/05/09 04:28:49;;;;;;;4.90;2.80;;;8.10;91.30;;;;;;5055149;28;20111;-86
2021/05/09 04:31:15;;;;;;;3.58;3.10;;;8.20;91.30;;;;;;5055303;28;20033;-89
2021/05/09 04:33:41;;;;;;;3.72;3.00;;;8.20;91.00;;;;;;5056679;28;20029;-85
2021/05/09 04:36:06;;;;;;;3.30;2.95;;;8.30;90.80;;;;;;5056226;28;20053;-87
2021/05/09 04:38:32;;;;;;;4.30;3.10;;;8.40;90.70;;;;;;5055887;28;20106;-84
2021/05/09 04:40:58;;;;;;;4.20;2.80;;;8.40;90.40;;;;;;5054862;28;20497;-88
2021/05/09 04:43:24;;;;;;;3.63;3.05;;;8.50;90.10;;;;;;5055920;28;20096;-85
2021/05/09 04:45:53;;;;;;;3.50;3.10;;;8.60;90.10;;;;;;5054990;28;20024;-88
2021/05/09 04:48:19;;;;;;;4.30;3.33;;;8.60;90.30;;;;;;5055920;28;20039;-88
2021/05/09 04:50:46;;;;;;;3.65;3.05;;;8.70;90.00;;;;;;5054619;28;20037;-81
2021/05/09 04:53:36;;;;;;;3.30;3.00;;;8.80;90.00;;;;;;5054848;28;20136;-87
2021/05/09 04:56:08;;;;;;;3.75;2.80;;;8.80;89.40;;;;;;5053417;28;20043;-90
2021/05/09 04:58:41;;;;;;;4.68;2.97;;;8.90;88.90;;;;;;5056000;28;20029;-94
2021/05/09 05:01:09;;;;;;;3.28;2.97;;;8.90;89.10;;;;;;5054790;28;20036;-91
2021/05/09 05:03:36;;;;;;;3.72;3.10;;;9.00;88.70;;;;;;5055275;28;20017;-91
2021/05/09 05:06:02;;;;;;;3.85;3.20;;;9.00;88.90;;;;;;5055772;28;20345;-81
2021/05/09 05:08:31;;;;;;;3.25;2.92;;;9.00;88.90;;;;;;5055589;28;20539;-82
2021/05/09 05:10:57;;;;;;;3.40;3.10;;;9.20;87.30;;;;;;5055556;28;20029;-81
2021/05/09 05:13:28;;;;;;;3.10;2.80;;;9.30;86.40;;;;;;5056289;28;20096;-93
2021/05/09 05:15:55;;;;;;;3.53;3.00;;;9.30;86.90;;;;;;5057920;28;20475;-90
2021/05/09 05:18:22;;;;;;;3.17;2.88;;;9.30;87.20;;;;;;5056538;28;20028;-89
2021/05/09 05:20:48;;;;;;;4.13;3.08;;;9.40;86.30;;;;;;5055068;28;20038;-82
2021/05/09 05:23:14;;;;;;;3.83;2.83;;;9.40;85.90;;;;;;5055295;28;20021;-88
2021/05/09 05:25:41;;;;;;;3.00;2.70;;;9.40;86.40;;;;;;5054156;28;20021;-83
2021/05/09 05:28:07;;;;;;;3.30;3.00;;;9.50;85.70;;;;;;5055021;28;20029;-83
2021/05/09 05:30:36;;;;;;;3.38;2.78;;;9.40;86.20;;;;;;5055142;28;20079;-79
2021/05/09 05:33:02;;;;;;;3.35;2.75;;;9.40;86.10;;;;;;5053776;28;20025;-83
2021/05/09 05:35:28;;;;;;;2.95;2.65;;;9.40;86.60;;;;;;5054764;28;20111;-91
2021/05/09 05:37:55;;;;;;;2.85;2.60;;;9.50;85.70;;;;;;5053709;28;20536;-83
2021/05/09 05:40:22;;;;;;;3.75;2.80;;;9.50;85.70;;;;;;5054345;28;20379;-86
2021/05/09 05:42:49;;;;;;;4.57;3.03;;;9.60;86.00;;;;;;5054908;28;20032;-91
2021/05/09 05:45:15;;;;;;;3.92;2.90;;;9.60;85.50;;;;;;5053601;28;20467;-83
2021/05/09 05:47:41;;;;;;;3.08;2.80;;;9.70;85.90;;;;;;5053310;28;20036;-87
2021/05/09 05:50:07;;;;;;;4.45;3.42;;;9.70;85.40;;;;;;5053499;28;20026;-83
2021/05/09 05:52:33;;;;;;;3.47;3.17;;;9.80;85.90;;;;;;5054472;28;20029;-81
2021/05/09 05:54:59;;;;;;;4.47;2.90;;;9.80;85.60;;;;;;5054285;28;20486;-85
2021/05/09 05:57:25;;;;;;;3.20;2.90;;;9.90;83.10;;;;;;5054168;28;20060;-82
2021/05/09 05:59:51;;;;;;;3.55;3.00;;;10.00;83.40;;;;;;5054122;28;20474;-82
2021/05/09 06:02:16;;;;;;;3.13;2.90;;;10.10;83.50;;;;;;5054696;28;20024;-86
2021/05/09 06:04:42;;;;;;;3.17;2.88;;;10.10;82.00;;;;;;5053138;28;20112;-86
2021/05/09 06:07:09;;;;;;;3.28;2.92;;;10.00;82.90;;;;;;5053722;28;20029;-81
2021/05/09 06:09:35;;;;;;;3.25;2.95;;;10.10;83.20;;;;;;5053142;28;20044;-87
2021/05/09 06:12:02;;;;;;;3.17;2.83;;;10.10;83.20;;;;;;5052087;28;20021;-88
2021/05/09 06:14:29;;;;;;;2.90;2.60;;;10.10;83.30;;;;;;5051558;28;20390;-89
2021/05/09 06:16:54;;;;;;;3.22;2.72;;;10.20;83.00;;;;;;5052698;28;20029;-84
2021/05/09 06:19:20;;;;;;;2.95;2.65;;;10.30;81.40;;;;;;5053140;28;20414;-85
2021/05/09 06:21:46;;;;;;;3.75;2.70;;;10.40;80.70;;;;;;5054179;28;20437;-78
2021/05/09 06:24:12;;;;;;;2.45;2.25;;;10.50;79.80;;;;;;5053089;28;20382;-91
2021/05/09 06:26:38;;;;;;;3.30;2.58;;;10.50;80.60;;;;;;5052752;28;20028;-85
2021/05/09 06:29:04;;;;;;;3.00;2.70;;;10.50;81.10;;;;;;5052823;28;20063;-80
2021/05/09 06:31:29;;;;;;;3.80;2.85;;;10.60;80.00;;;;;;5054192;28;20415;-83
2021/05/09 06:33:55;;;;;;;2.70;2.50;;;10.60;80.50;;;;;;5054025;28;20064;-89
2021/05/09 06:36:21;;;;;;;4.13;2.33;;;10.70;78.90;;;;;;5053815;28;20088;-81
2021/05/09 06:38:46;;;;;;;2.60;2.40;;;10.80;78.00;;;;;;5052796;28;20032;-88
2021/05/09 06:41:12;;;;;;;2.65;2.45;;;10.80;79.20;;;;;;5053931;28;20020;-83
2021/05/09 06:43:38;;;;;;;3.17;2.10;;;10.90;77.50;;;;;;5052235;28;20025;-84
2021/05/09 06:46:03;;;;;;;2.28;2.08;;;11.00;75.80;;;;;;5053211;28;20120;-84
2021/05/09 06:48:30;;;;;;;3.22;2.92;;;11.00;75.00;;;;;;5052260;28;20110;-88
2021/05/09 06:50:57;;;;;;;2.55;2.35;;;11.00;76.20;;;;;;5052358;28;20028;-80
2021/05/09 06:53:23;;;;;;;2.90;2.60;;;11.10;74.90;;;;;;5053706;28;20029;-91
2021/05/09 06:55:50;;;;;;;2.40;2.20;;;11.10;74.90;;;;;;5053332;28;20025;-81
2021/05/09 06:58:19;;;;;;;2.30;2.10;;;11.10;74.20;;;;;;5053278;28;20025;-82
2021/05/09 07:00:45;;;;;;;2.50;2.30;;;11.10;75.70;;;;;;5053639;28;20041;-87
2021/05/09 07:03:10;;;;;;;2.75;2.47;;;11.20;74.20;;;;;;5053607;28;20031;-88
2021/05/09 07:05:36;;;;;;;2.45;2.25;;;11.30;72.40;;;;;;5052061;28;20028;-82
2021/05/09 07:08:03;;;;;;;3.10;2.80;;;11.40;71.40;;;;;;5053576;28;20045;-83
2021/05/09 07:10:33;;;;;;;3.75;2.40;;;11.40;73.20;;;;;;5052198;28;20060;-88
2021/05/09 07:12:59;;;;;;;2.75;2.55;;;11.40;73.20;;;;;;5052331;28;20032;-81
2021/05/09 07:15:27;;;;;;;3.60;2.40;;;11.50;74.20;;;;;;5051693;28;20025;-85
2021/05/09 07:18:01;;;;;;;3.15;2.53;;;11.50;72.60;;;;;;5053322;28;20032;-78
2021/05/09 07:20:29;;;;;;;2.50;2.28;;;11.60;73.00;;;;;;5053177;28;20067;-84
2021/05/09 07:22:55;;;;;;;2.75;2.45;;;11.60;72.20;;;;;;5052066;28;20124;-85
2021/05/09 07:25:22;;;;;;;2.30;2.10;;;11.70;72.00;;;;;;5053577;28;20159;-82
2021/05/09 07:27:47;;;;;;;2.88;2.13;;;11.80;70.10;;;;;;5057234;28;20060;-80
2021/05/09 07:30:14;;;;;;;4.97;2.25;;;11.80;69.10;;;;;;5057231;28;20102;-87
2021/05/09 07:32:40;;;;;;;2.35;2.17;;;11.80;68.40;;;;;;5057136;28;20040;-78
2021/05/09 07:35:06;;;;;;;2.15;1.95;;;11.90;67.70;;;;;;5055617;28;20032;-80
2021/05/09 07:37:31;;;;;;;2.35;2.17;;;11.90;68.50;;;;;;5056040;28;20372;-79
2021/05/09 07:39:57;;;;;;;2.55;2.35;;;11.90;66.10;;;;;;5056876;28;20028;-80
2021/05/09 07:42:22;;;;;;;2.33;2.13;;;12.00;65.40;;;;;;5056756;28;20048;-82
2021/05/09 07:44:50;;;;;;;2.30;2.00;;;12.00;64.00;;;;;;5056949;28;20021;-89
2021/05/09 07:47:16;;;;;;;2.97;2.08;;;12.00;65.60;;;;;;5056930;28;20028;-78
2021/05/09 07:49:41;;;;;;;4.90;2.10;;;12.10;64.10;;;;;;5056998;28;20435;-79
2021/05/09 07:52:07;;;;;;;2.33;2.10;;;12.20;63.00;;;;;;5057028;28;20494;-91
2021/05/09 07:54:33;;;;;;;2.30;2.10;;;12.20;62.80;;;;;;5057055;28;20052;-88
2021/05/09 07:56:58;;;;;;;3.63;2.00;;;12.30;63.00;;;;;;5057410;28;20029;-95
2021/05/09 07:59:24;;;;;;;2.47;1.90;;;12.30;63.20;;;;;;5057626;28;20352;-85
2021/05/09 08:01:50;;;;;;;1.95;1.85;;;12.30;63.10;;;;;;5056734;28;20070;-92
2021/05/09 08:04:15;;;;;;;3.65;1.90;;;12.40;63.50;;;;;;5055587;28;20021;-83
2021/05/09 08:06:43;;;;;;;1.90;1.80;;;12.50;60.70;;;;;;5055562;28;20104;-88
2021/05/09 08:09:09;;;;;;;2.17;1.90;;;12.50;60.80;;;;;;5057122;28;20020;-90
2021/05/09 08:11:34;;;;;;;2.58;1.90;;;12.70;59.60;;;;;;5057021;28;20029;-89
2021/05/09 08:14:00;;;;;;;1.83;1.73;;;12.80;59.40;;;;;;5056687;28;20029;-85
2021/05/09 08:16:26;;;;;;;1.88;1.58;;;12.90;59.70;;;;;;5056988;28;20489;-83
2021/05/09 08:18:51;;;;;;;2.00;1.90;;;12.90;58.20;;;;;;5055168;28;20029;-83
2021/05/09 08:21:17;;;;;;;1.92;1.65;;;13.00;58.50;;;;;;5056300;28;20088;-80
2021/05/09 08:23:44;;;;;;;1.80;1.70;;;13.00;59.40;;;;;;5055384;28;20028;-80
2021/05/09 08:26:11;;;;;;;2.80;1.83;;;13.00;58.30;;;;;;5058391;28;20442;-80
2021/05/09 08:28:37;;;;;;;1.77;1.67;;;13.10;57.90;;;;;;5055462;28;20490;-80
2021/05/09 08:31:03;;;;;;;3.50;1.80;;;13.10;57.40;;;;;;5056363;28;20060;-81
2021/05/09 08:33:28;;;;;;;1.70;1.60;;;13.20;56.00;;;;;;5054527;28;20033;-81
2021/05/09 08:35:54;;;;;;;2.13;1.92;;;13.10;56.90;;;;;;5054598;28;20684;-82
2021/05/09 08:38:21;;;;;;;2.72;1.80;;;13.20;56.70;;;;;;5055234;28;20106;-79
2021/05/09 08:40:46;;;;;;;2.83;2.03;;;13.10;56.50;;;;;;5054734;28;20178;-86
2021/05/09 08:43:12;;;;;;;2.67;2.30;;;13.20;56.50;;;;;;5055840;28;20099;-75
2021/05/09 08:45:38;;;;;;;3.90;2.15;;;13.30;56.10;;;;;;5054255;28;20017;-82
2021/05/09 08:48:05;;;;;;;2.95;2.20;;;13.30;56.20;;;;;;5055657;28;20032;-82
2021/05/09 08:50:31;;;;;;;2.30;2.10;;;13.20;57.40;;;;;;5055389;28;20025;-79
2021/05/09 08:52:57;;;;;;;1.92;1.83;;;13.20;57.00;;;;;;5055452;28;20052;-78
2021/05/09 08:55:26;;;;;;;4.97;2.30;;;13.20;56.80;;;;;;5055355;28;20056;-79
2021/05/09 08:57:54;;;;;;;2.33;2.13;;;13.30;57.60;;;;;;5055275;28;20021;-84
2021/05/09 09:00:20;;;;;;;2.53;2.30;;;13.40;57.00;;;;;;5055772;28;20029;-79
2021/05/09 09:02:46;;;;;;;7.30;3.03;;;13.50;56.40;;;;;;5053996;28;20031;-73
2021/05/09 09:05:13;;;;;;;2.90;2.58;;;13.50;55.80;;;;;;5052574;28;20445;-76
2021/05/09 09:07:51;;;;;;;1.98;1.85;;;13.50;56.50;;;;;;5053586;28;20029;-74
2021/05/09 09:10:37;;;;;;;2.42;2.03;;;13.50;57.40;;;;;;5053555;28;20031;-77
2021/05/09 09:13:04;;;;;;;2.35;2.13;;;13.50;57.60;;;;;;5051438;28;20036;-74
2021/05/09 09:15:59;;;;;;;2.17;2.08;;;13.60;58.50;;;;;;5048731;28;20044;-73
2021/05/09 09:18:31;;;;;;;2.30;2.00;;;13.70;58.50;;;;;;5034025;28;20361;-85
2021/05/09 09:20:59;;;;;;;7.22;5.53;;;13.90;57.50;;;;;;5053174;28;20032;-83
2021/05/09 09:23:44;;;;;;;17.10;11.18;;;13.80;57.90;;;;;;5053061;28;20475;-80
2021/05/09 09:26:28;;;;;;;6.43;3.95;;;13.80;58.50;;;;;;5053902;28;20055;-84
2021/05/09 09:28:53;;;;;;;8.27;5.88;;;13.80;58.60;;;;;;5054141;28;20418;-80
2021/05/09 09:31:42;;;;;;;2.88;2.67;;;13.80;57.10;;;;;;5052251;28;20029;-78
2021/05/09 09:34:09;;;;;;;4.50;2.25;;;13.80;57.30;;;;;;5033583;28;20026;-78
2021/05/09 09:36:36;;;;;;;3.72;2.10;;;13.80;57.90;;;;;;5034914;28;20491;-77
2021/05/09 09:39:02;;;;;;;1.92;1.75;;;14.00;56.20;;;;;;5034775;28;20017;-76
2021/05/09 09:41:28;;;;;;;2.13;2.03;;;13.90;56.50;;;;;;5043892;28;20024;-77
2021/05/09 09:44:11;;;;;;;2.38;1.80;;;14.00;55.70;;;;;;5054712;28;20025;-79
2021/05/09 09:46:54;;;;;;;2.55;2.10;;;14.00;55.70;;;;;;5053839;28;20043;-92
2021/05/09 09:49:28;;;;;;;2.67;2.03;;;14.00;54.80;;;;;;5054345;28;20025;-76
2021/05/09 09:52:03;;;;;;;2.58;2.13;;;14.00;54.90;;;;;;5053194;28;20475;-80
2021/05/09 09:54:46;;;;;;;2.20;2.00;;;13.80;55.60;;;;;;5053697;28;20028;-81
2021/05/09 09:57:21;;;;;;;2.50;2.17;;;13.80;55.30;;;;;;5054063;28;20017;-87
2021/05/09 10:00:12;;;;;;;2.88;1.83;;;13.80;54.00;;;;;;5052490;28;20028;-80
2021/05/09 10:02:39;;;;;;;1.98;1.88;;;13.80;52.80;;;;;;5052760;28;20025;-80
2021/05/09 10:05:05;;;;;;;2.13;2.03;;;13.80;54.50;;;;;;5063342;28;20021;-81
2021/05/09 10:07:32;;;;;;;2.20;2.00;;;13.80;54.70;;;;;;5071978;28;20024;-77
2021/05/09 10:09:58;;;;;;;2.72;2.20;;;13.90;54.80;;;;;;5073839;28;20108;-83
2021/05/09 10:12:24;;;;;;;2.30;2.10;;;14.00;53.50;;;;;;5073006;28;20064;-89
2021/05/09 10:14:51;;;;;;;2.20;2.00;;;14.10;53.70;;;;;;5072293;28;20024;-91
2021/05/09 10:17:17;;;;;;;2.00;1.90;;;14.10;53.60;;;;;;5072507;28;20393;-82
2021/05/09 10:19:44;;;;;;;10.05;2.58;;;14.10;54.20;;;;;;5074017;28;20044;-85
2021/05/09 10:22:29;;;;;;;2.38;2.17;;;14.20;54.40;;;;;;5073470;28;20020;-82
2021/05/09 10:24:55;;;;;;;2.40;2.20;;;14.30;54.70;;;;;;5070200;28;20596;-76
2021/05/09 10:27:38;;;;;;;2.08;1.95;;;14.40;53.80;;;;;;5052259;28;20037;-82
2021/05/09 10:30:13;;;;;;;3.55;2.03;;;14.40;54.50;;;;;;5051921;28;20021;-81
2021/05/09 10:32:39;;;;;;;2.05;1.95;;;14.60;53.70;;;;;;5053348;28;20028;-85
2021/05/09 10:35:08;;;;;;;4.18;2.70;;;14.60;54.60;;;;;;5052305;28;20036;-78
2021/05/09 10:37:45;;;;;;;2.75;2.53;;;14.70;53.40;;;;;;5053053;28;20029;-76
2021/05/09 10:40:27;;;;;;;2.50;2.25;;;14.70;52.70;;;;;;5051965;28;20057;-77
2021/05/09 10:43:05;;;;;;;2.50;2.30;;;14.50;52.30;;;;;;5053280;28;20052;-76
2021/05/09 10:45:34;;;;;;;2.80;2.60;;;14.50;51.90;;;;;;5051565;28;20025;-76
2021/05/09 10:51:01;;;;;;;2.60;2.40;;;14.40;52.20;;;;;;5053179;28;20444;-85
2021/05/09 10:53:30;;;;;;;3.55;3.10;;;14.30;52.30;;;;;;5051839;28;20111;-77
2021/05/09 10:55:57;;;;;;;2.90;2.60;;;14.20;53.00;;;;;;5052219;28;20032;-91
2021/05/09 10:58:46;;;;;;;3.47;3.17;;;14.20;53.60;;;;;;5051733;28;20102;-84
2021/05/09 11:01:28;;;;;;;2.97;2.78;;;14.20;54.60;;;;;;5051475;28;20098;-91
2021/05/09 11:04:11;;;;;;;2.88;2.53;;;14.30;53.60;;;;;;5052887;28;20018;-83
2021/05/09 11:06:48;;;;;;;3.10;2.80;;;14.30;53.30;;;;;;5051914;28;20802;-91
2021/05/09 11:09:14;;;;;;;3.42;2.60;;;14.40;53.40;;;;;;5052700;28;20124;-78
2021/05/09 11:11:40;;;;;;;2.85;2.05;;;14.50;53.20;;;;;;5052742;28;20017;-85
2021/05/09 11:14:10;;;;;;;2.15;1.95;;;14.70;52.00;;;;;;5052848;28;20024;-82
2021/05/09 11:16:40;;;;;;;2.50;2.30;;;14.70;52.30;;;;;;5052436;28;20025;-81
2021/05/09 11:19:09;;;;;;;2.50;2.30;;;14.70;52.30;;;;;;5052698;28;20266;-87
2021/05/09 11:21:35;;;;;;;2.53;2.33;;;14.80;52.70;;;;;;5051489;28;20060;-77
2021/05/09 11:24:03;;;;;;;2.10;2.00;;;14.90;53.20;;;;;;5052850;28;20029;-83
2021/05/09 11:26:32;;;;;;;3.20;2.90;;;15.00;53.00;;;;;;5052727;28;20102;-80
2021/05/09 11:29:15;;;;;;;3.55;2.50;;;15.10;52.70;;;;;;5052749;28;20033;-86
2021/05/09 11:31:46;;;;;;;2.13;1.92;;;15.10;52.00;;;;;;5051619;28;20756;-80
2021/05/09 11:34:13;;;;;;;2.70;2.50;;;15.20;51.00;;;;;;5052764;28;20025;-84
2021/05/09 11:36:41;;;;;;;2.90;2.70;;;15.10;52.10;;;;;;5052438;28;20124;-76
2021/05/09 11:39:12;;;;;;;2.92;2.42;;;15.20;52.30;;;;;;5052866;28;20040;-84
2021/05/09 11:42:00;;;;;;;3.08;2.78;;;15.20;51.60;;;;;;5051458;28;20081;-87
2021/05/09 11:44:27;;;;;;;3.00;2.70;;;15.10;51.80;;;;;;5052561;28;20036;-77
2021/05/09 11:46:54;;;;;;;2.80;2.50;;;14.90;52.60;;;;;;5052815;28;20032;-75
2021/05/09 11:49:25;;;;;;;2.92;2.65;;;14.90;51.80;;;;;;5052808;28;20035;-89
2021/05/09 11:51:59;;;;;;;2.88;2.60;;;14.80;51.70;;;;;;5052821;28;20414;-88
2021/05/09 11:54:27;;;;;;;2.63;1.85;;;14.70;53.30;;;;;;5052662;28;20152;-78
2021/05/09 11:56:57;;;;;;;2.50;2.30;;;14.90;52.30;;;;;;5052781;28;20025;-80
2021/05/09 11:59:33;;;;;;;1.90;1.80;;;15.10;52.50;;;;;;5051271;28;20025;-79
2021/05/09 12:02:01;;;;;;;2.92;2.00;;;15.70;51.00;;;;;;5052575;28;20021;-79
2021/05/09 12:04:30;;;;;;;2.50;2.08;;;16.10;51.90;;;;;;5051415;28;20029;-82
2021/05/09 12:07:01;;;;;;;2.38;2.20;;;17.30;49.60;;;;;;5051092;28;20029;-86
2021/05/09 12:09:29;;;;;;;2.20;2.00;;;18.60;46.90;;;;;;5051381;28;20029;-79
2021/05/09 12:11:55;;;;;;;2.22;2.13;;;19.70;44.70;;;;;;5052480;28;20036;-87
2021/05/09 12:14:24;;;;;;;1.90;1.70;;;20.60;44.30;;;;;;5055362;28;20414;-77
2021/05/09 12:16:50;;;;;;;2.63;2.42;;;21.70;41.90;;;;;;5054643;28;20143;-79
2021/05/09 12:19:16;;;;;;;6.63;4.45;;;22.30;39.00;;;;;;5055695;28;20109;-77
2021/05/09 12:21:55;;;;;;;3.85;2.70;;;22.10;39.20;;;;;;5054043;28;20103;-82
2021/05/09 12:24:21;;;;;;;2.72;2.53;;;21.90;38.40;;;;;;5035773;28;20052;-80
2021/05/09 12:27:03;;;;;;;1.75;1.65;;;21.70;40.40;;;;;;5035842;28;20029;-77
2021/05/09 12:29:29;;;;;;;1.80;1.60;;;22.50;38.20;;;;;;5034254;28;20029;-78
2021/05/09 12:32:18;;;;;;;2.20;2.00;;;22.90;38.00;;;;;;5035698;28;20041;-80
2021/05/09 12:35:10;;;;;;;1.75;1.48;;;23.00;38.70;;;;;;5035877;28;20071;-80
2021/05/09 12:37:59;;;;;;;1.60;1.50;;;23.80;36.80;;;;;;5035798;28;20124;-80
2021/05/09 12:40:31;;;;;;;1.75;1.50;;;24.00;36.40;;;;;;5053911;28;20018;-82
2021/05/09 12:43:00;;;;;;;2.28;1.80;;;23.90;37.50;;;;;;5055216;28;20013;-81
2021/05/09 12:45:52;;;;;;;3.10;1.53;;;24.30;37.90;;;;;;5055219;28;20135;-79
2021/05/09 12:48:26;;;;;;;1.50;1.40;;;24.80;36.20;;;;;;5053980;28;20029;-76
2021/05/09 12:51:06;;;;;;;2.50;2.30;;;24.80;35.70;;;;;;5053807;28;20025;-79
2021/05/09 12:53:44;;;;;;;2.45;2.25;;;25.00;36.80;;;;;;5055087;28;20021;-77
2021/05/09 12:56:16;;;;;;;2.05;1.33;;;25.40;35.70;;;;;;5053788;28;20034;-79
2021/05/09 12:58:57;;;;;;;1.67;1.58;;;25.40;35.00;;;;;;5062496;28;20031;-78